Time;durP1;ratioP1;P1;durP2;ratioP2;P2;SDS_P1;SDS_P2;PMS_P1;PMS_P2;Temp;Humidity;BMP_temperature;BMP_pressure;BME280_temperature;BME280_humidity;BME280_pressure;Samples;Min_cycle;Max_cycle;Signal;HPM_P1;HPM_P2
2022/09/09 00:00:26;;;;;;;9.57;7.37;;;;;;;20.12;100.00;101338.50;2080163;28;20200;-67
2022/09/09 00:01:55;;;;;;;10.10;7.50;;;;;;;20.03;100.00;101316.06;2079993;28;20181;-67
2022/09/09 00:03:19;;;;;;;8.93;7.20;;;;;;;20.14;100.00;101340.84;2078788;28;20907;-67
2022/09/09 00:04:25;;;;;;;13.80;8.57;;;;;;;20.10;100.00;101332.59;2079797;28;20435;-66
2022/09/09 00:05:32;;;;;;;16.33;8.60;;;;;;;20.07;100.00;101333.53;2079490;28;20797;-67
2022/09/09 00:06:46;;;;;;;12.67;8.03;;;;;;;20.07;100.00;101329.94;2079887;28;20901;-67
2022/09/09 00:07:50;;;;;;;17.20;8.97;;;;;;;20.07;100.00;101339.16;2078916;28;20443;-67
2022/09/09 00:09:01;;;;;;;11.10;7.80;;;;;;;20.07;100.00;101335.56;2079394;28;20447;-67
2022/09/09 00:10:18;;;;;;;17.73;8.00;;;;;;;20.07;100.00;101335.56;2080077;28;20447;-67
2022/09/09 00:11:29;;;;;;;10.70;8.00;;;;;;;19.65;100.00;101282.25;2079313;28;20441;-67
2022/09/09 00:12:42;;;;;;;11.70;7.67;;;;;;;20.06;100.00;101348.06;2080181;28;20958;-67
2022/09/09 00:13:48;;;;;;;14.70;7.83;;;;;;;20.07;100.00;101344.78;2079533;28;20478;-67
2022/09/09 00:15:00;;;;;;;10.30;7.93;;;;;;;19.90;100.00;101337.25;2079438;28;20544;-67
2022/09/09 00:16:22;;;;;;;14.30;7.87;;;;;;;20.06;100.00;101350.88;2078892;28;20462;-67
2022/09/09 00:17:28;;;;;;;14.43;8.30;;;;;;;20.06;100.00;101346.03;2079311;28;20418;-67
2022/09/09 00:19:13;;;;;;;11.90;8.03;;;;;;;20.05;100.00;101346.53;2079974;28;20820;-67
2022/09/09 00:20:25;;;;;;;10.67;8.00;;;;;;;19.99;100.00;101348.41;2078608;28;20508;-67
2022/09/09 00:21:38;;;;;;;11.83;7.30;;;;;;;19.91;100.00;101348.00;2078841;28;20939;-66
2022/09/09 00:22:47;;;;;;;10.47;6.63;;;;;;;19.87;100.00;101357.88;2079190;28;20485;-67
2022/09/09 00:23:54;;;;;;;7.70;6.90;;;;;;;19.85;100.00;101354.78;2080128;28;20481;-67
2022/09/09 00:25:06;;;;;;;10.93;7.80;;;;;;;19.82;100.00;101362.16;2079347;28;20439;-67
2022/09/09 00:26:12;;;;;;;9.10;7.93;;;;;;;19.78;100.00;101352.31;2079616;28;20520;-67
2022/09/09 00:27:23;;;;;;;10.83;8.50;;;;;;;19.71;100.00;101355.50;2079507;28;20601;-67
2022/09/09 00:28:26;;;;;;;11.63;8.60;;;;;;;19.67;100.00;101346.44;2079797;28;20419;-67
2022/09/09 00:29:45;;;;;;;9.93;8.57;;;;;;;19.57;100.00;101342.91;2079620;28;20960;-67
2022/09/09 00:30:48;;;;;;;13.03;8.50;;;;;;;19.63;100.00;101348.66;2079206;28;20545;-67
2022/09/09 00:31:52;;;;;;;10.40;9.27;;;;;;;19.61;100.00;101353.97;2078498;28;20443;-67
2022/09/09 00:33:01;;;;;;;10.20;9.00;;;;;;;19.60;100.00;101353.19;2079977;28;20469;-67
2022/09/09 00:34:17;;;;;;;9.97;8.97;;;;;;;19.60;100.00;101355.25;2080020;28;20497;-67
2022/09/09 00:35:32;;;;;;;10.33;8.50;;;;;;;19.61;100.00;101360.41;2078667;28;21342;-67
2022/09/09 00:36:35;;;;;;;10.80;9.70;;;;;;;19.60;100.00;101358.06;2079400;28;20445;-67
2022/09/09 00:37:39;;;;;;;10.97;9.30;;;;;;;19.59;100.00;101357.25;2078717;28;20451;-66
2022/09/09 00:38:52;;;;;;;10.60;9.53;;;;;;;19.61;100.00;101359.59;2078429;28;21494;-67
2022/09/09 00:39:57;;;;;;;11.20;9.27;;;;;;;19.62;100.00;101363.97;2080054;28;20871;-66
2022/09/09 00:41:27;;;;;;;9.50;8.57;;;;;;;19.62;100.00;101364.75;2079732;28;20515;-66
2022/09/09 00:42:52;;;;;;;10.87;8.73;;;;;;;19.65;100.00;101363.78;2080102;28;20434;-66
2022/09/09 00:44:01;;;;;;;10.70;8.60;;;;;;;19.59;100.00;101345.25;2078154;28;20939;-67
2022/09/09 00:45:42;;;;;;;12.63;8.57;;;;;;;19.70;100.00;101368.00;2079116;28;20817;-66
2022/09/09 00:47:30;;;;;;;9.57;8.40;;;;;;;19.64;100.00;101361.44;2079645;28;20449;-66
2022/09/09 00:48:51;;;;;;;10.23;8.00;;;;;;;19.62;100.00;101358.34;2078862;28;20546;-67
2022/09/09 00:50:01;;;;;;;10.57;7.63;;;;;;;19.60;100.00;101364.44;2079752;28;20455;-66
2022/09/09 00:51:15;;;;;;;10.53;7.90;;;;;;;19.55;100.00;101364.31;2080125;28;20455;-66
2022/09/09 00:52:45;;;;;;;10.90;8.47;;;;;;;19.34;100.00;101328.81;2078640;28;20522;-66
2022/09/09 00:53:58;;;;;;;12.83;8.83;;;;;;;19.59;100.00;101367.75;2078265;28;20483;-67
2022/09/09 00:55:11;;;;;;;10.37;9.00;;;;;;;19.62;100.00;101356.31;2079152;28;20450;-67
2022/09/09 00:56:14;;;;;;;10.93;9.37;;;;;;;19.65;100.00;101365.84;2079487;28;20461;-67
2022/09/09 00:57:31;;;;;;;11.97;9.07;;;;;;;18.77;100.00;101234.47;2079692;28;20968;-66
2022/09/09 00:58:32;;;;;;;10.90;9.90;;;;;;;18.74;100.00;101224.97;2078708;28;20560;-66
2022/09/09 00:59:50;;;;;;;11.47;8.83;;;;;;;19.70;100.00;101363.13;2079671;28;20431;-66
2022/09/09 01:00:53;;;;;;;11.47;9.13;;;;;;;19.70;100.00;101368.75;2079764;28;20988;-66
2022/09/09 01:01:54;;;;;;;11.67;9.17;;;;;;;19.29;100.00;101296.50;2079673;28;20451;-66
2022/09/09 01:03:14;;;;;;;11.83;8.93;;;;;;;19.74;100.00;101357.34;2079199;28;20439;-66
2022/09/09 01:04:28;;;;;;;12.77;9.60;;;;;;;19.76;100.00;101357.66;2079983;28;20443;-66
2022/09/09 01:06:12;;;;;;;11.47;9.47;;;;;;;19.77;100.00;101359.19;2080256;28;20400;-67
2022/09/09 01:07:17;;;;;;;11.10;9.13;;;;;;;19.78;100.00;101361.53;2086388;28;20458;-67
2022/09/09 01:08:45;;;;;;;9.33;8.20;;;;;;;19.80;100.00;101361.81;2086537;28;20458;-67
2022/09/09 01:09:59;;;;;;;10.80;8.60;;;;;;;19.78;100.00;101366.38;2080984;28;20468;-66
2022/09/09 01:11:02;;;;;;;9.47;8.47;;;;;;;19.75;100.00;101356.84;2079665;28;20572;-66
2022/09/09 01:12:17;;;;;;;10.37;8.83;;;;;;;19.80;100.00;101370.25;2079954;28;20442;-66
2022/09/09 01:13:33;;;;;;;11.80;9.17;;;;;;;19.80;100.00;101366.69;2079326;28;20457;-66
2022/09/09 01:14:33;;;;;;;9.43;8.00;;;;;;;19.83;100.00;101368.53;2077997;28;20978;-66
2022/09/09 01:15:35;;;;;;;12.33;8.73;;;;;;;19.06;100.00;101243.06;2079365;28;20815;-67
2022/09/09 01:16:36;;;;;;;12.97;9.20;;;;;;;19.82;100.00;101369.78;2079090;28;20212;-66
2022/09/09 01:17:44;;;;;;;10.77;8.67;;;;;;;19.82;100.00;101367.78;2078830;28;20446;-66
2022/09/09 01:18:49;;;;;;;12.30;9.10;;;;;;;19.81;100.00;101362.63;2078712;28;20272;-66
2022/09/09 01:20:01;;;;;;;13.37;9.33;;;;;;;19.80;100.00;101364.63;2079371;28;20486;-66
2022/09/09 01:21:13;;;;;;;12.63;9.10;;;;;;;19.80;100.00;101361.81;2078630;28;20605;-67
2022/09/09 01:22:53;;;;;;;10.90;8.27;;;;;;;19.82;100.00;101358.53;2079664;28;20482;-67
2022/09/09 01:24:18;;;;;;;12.27;8.43;;;;;;;19.82;100.00;101358.53;2080697;28;20444;-66
2022/09/09 01:25:48;;;;;;;10.57;8.40;;;;;;;19.76;100.00;101349.97;2078537;28;20430;-66
2022/09/09 01:26:54;;;;;;;9.50;8.50;;;;;;;19.74;100.00;101344.06;2079397;28;20442;-67
2022/09/09 01:28:00;;;;;;;9.73;8.60;;;;;;;19.85;100.00;101354.78;2078900;28;20582;-67
2022/09/09 01:29:00;;;;;;;12.03;8.67;;;;;;;19.74;100.00;101341.25;2079623;28;20450;-66
2022/09/09 01:30:04;;;;;;;10.13;8.70;;;;;;;19.87;100.00;101366.31;2079722;28;20459;-66
2022/09/09 01:31:09;;;;;;;9.70;8.50;;;;;;;19.88;100.00;101360.22;2078821;28;20184;-67
2022/09/09 01:32:40;;;;;;;10.10;9.00;;;;;;;19.90;100.00;101360.50;2078847;28;20866;-67
2022/09/09 01:33:40;;;;;;;10.00;8.57;;;;;;;19.91;100.00;101359.25;2079273;28;20428;-67
2022/09/09 01:34:41;;;;;;;11.73;8.87;;;;;;;19.89;100.00;101358.19;2079078;28;20490;-67
2022/09/09 01:36:23;;;;;;;9.93;8.63;;;;;;;19.91;100.00;101355.69;2079462;28;20192;-67
2022/09/09 01:37:24;;;;;;;8.90;8.00;;;;;;;19.86;100.00;101354.28;2078651;28;20208;-66
2022/09/09 01:38:25;;;;;;;9.97;8.57;;;;;;;19.82;100.00;101348.09;2079106;28;20436;-66
2022/09/09 01:39:26;;;;;;;9.47;8.57;;;;;;;19.66;100.00;101334.41;2079365;28;20185;-66
2022/09/09 01:40:26;;;;;;;10.00;9.00;;;;;;;19.84;100.00;101361.66;2078855;28;20659;-66
2022/09/09 01:41:27;;;;;;;11.33;8.83;;;;;;;19.49;100.00;101301.59;2078206;28;20780;-66
2022/09/09 01:42:28;;;;;;;9.80;8.80;;;;;;;19.82;100.00;101359.34;2079052;28;20691;-66
2022/09/09 01:43:29;;;;;;;11.50;8.40;;;;;;;19.55;100.00;101319.34;2080424;28;20193;-67
2022/09/09 01:44:30;;;;;;;10.20;8.63;;;;;;;19.89;100.00;101358.97;2078854;28;20268;-66
2022/09/09 01:45:31;;;;;;;13.13;8.90;;;;;;;19.90;100.00;101357.72;2078878;28;20196;-66
2022/09/09 01:46:31;;;;;;;12.77;8.87;;;;;;;19.93;100.00;101356.75;2078564;28;20497;-66
2022/09/09 01:47:32;;;;;;;11.03;9.20;;;;;;;19.85;100.00;101343.53;2078830;28;20781;-66
2022/09/09 01:48:33;;;;;;;9.30;8.33;;;;;;;19.94;100.00;101363.16;2078351;28;20281;-66
2022/09/09 01:49:33;;;;;;;10.93;8.07;;;;;;;19.94;100.00;101366.75;2077864;28;20203;-67
2022/09/09 01:50:34;;;;;;;13.83;8.80;;;;;;;19.96;100.00;101371.91;2079364;28;20423;-67
2022/09/09 01:51:38;;;;;;;14.10;9.33;;;;;;;19.37;100.00;101280.88;2080380;28;20181;-67
2022/09/09 01:52:38;;;;;;;10.83;9.13;;;;;;;19.97;100.00;101365.00;2080495;28;20192;-67
2022/09/09 01:53:41;;;;;;;11.50;9.13;;;;;;;19.97;100.00;101365.81;2078777;28;20584;-66
2022/09/09 01:54:42;;;;;;;12.17;9.00;;;;;;;19.92;100.00;101366.47;2078653;28;20227;-67
2022/09/09 01:56:09;;;;;;;13.00;9.20;;;;;;;19.93;100.00;101368.00;2078352;28;20443;-66
2022/09/09 01:57:12;;;;;;;11.93;8.40;;;;;;;19.94;100.00;101371.59;2078126;28;21013;-66
2022/09/09 01:58:43;;;;;;;10.10;8.47;;;;;;;19.93;100.00;101375.66;2079011;28;20447;-67
2022/09/09 02:00:11;;;;;;;10.40;8.23;;;;;;;19.90;100.00;101371.75;2079039;28;20403;-67
2022/09/09 02:01:35;;;;;;;12.40;8.63;;;;;;;19.88;100.00;101377.09;2078679;28;20444;-67
2022/09/09 02:02:44;;;;;;;9.63;8.30;;;;;;;19.26;100.00;101277.03;2078288;28;20826;-67
2022/09/09 02:03:53;;;;;;;11.13;8.90;;;;;;;19.89;100.00;101370.22;2079462;28;20485;-67
2022/09/09 02:05:10;;;;;;;13.93;8.67;;;;;;;19.87;100.00;101377.59;2078808;28;20443;-67
2022/09/09 02:06:34;;;;;;;8.73;7.47;;;;;;;19.89;100.00;101383.50;2077879;28;20459;-67
2022/09/09 02:07:37;;;;;;;11.80;8.60;;;;;;;19.88;100.00;101377.09;2079506;28;20988;-67
2022/09/09 02:09:02;;;;;;;11.57;8.23;;;;;;;19.13;100.00;101259.59;2078619;28;20895;-67
2022/09/09 02:10:19;;;;;;;12.67;9.23;;;;;;;19.90;100.00;101385.84;2079172;28;20667;-67
2022/09/09 02:11:22;;;;;;;14.40;8.53;;;;;;;19.90;100.00;101383.03;2079279;28;20453;-67
2022/09/09 02:12:25;;;;;;;13.70;8.67;;;;;;;19.89;100.00;101384.28;2079257;28;20939;-66
2022/09/09 02:13:26;;;;;;;12.87;8.40;;;;;;;19.90;100.00;101385.06;2079324;28;20446;-66
2022/09/09 02:14:34;;;;;;;16.00;8.50;;;;;;;19.88;100.00;101382.72;2079776;28;20426;-66
2022/09/09 02:15:42;;;;;;;12.87;8.23;;;;;;;19.87;100.00;101386.03;2079479;28;20191;-66
2022/09/09 02:17:03;;;;;;;13.50;8.47;;;;;;;19.86;100.00;101379.59;2078906;28;20455;-66
2022/09/09 02:18:08;;;;;;;11.43;7.97;;;;;;;19.03;100.00;101250.41;2078548;28;20415;-66
2022/09/09 02:19:25;;;;;;;14.00;8.83;;;;;;;19.87;100.00;101380.38;2080169;28;20675;-66
2022/09/09 02:20:27;;;;;;;9.47;7.93;;;;;;;19.84;100.00;101378.53;2079523;28;20419;-66
2022/09/09 02:21:30;;;;;;;10.17;8.47;;;;;;;19.84;100.00;101379.31;2080085;28;20435;-66
2022/09/09 02:22:34;;;;;;;9.90;7.93;;;;;;;19.61;100.00;101345.53;2080216;28;20477;-66
2022/09/09 02:23:36;;;;;;;13.73;8.83;;;;;;;19.80;100.00;101375.13;2078549;28;20948;-66
2022/09/09 02:24:39;;;;;;;10.83;8.13;;;;;;;19.82;100.00;101372.59;2077901;28;20454;-66
2022/09/09 02:25:41;;;;;;;10.67;8.80;;;;;;;19.76;100.00;101358.41;2078509;28;20447;-67
2022/09/09 02:26:45;;;;;;;13.97;8.30;;;;;;;19.81;100.00;101369.00;2078611;28;20451;-66
2022/09/09 02:27:49;;;;;;;10.00;8.13;;;;;;;19.81;100.00;101366.19;2078337;28;20487;-67
2022/09/09 02:28:52;;;;;;;12.77;8.57;;;;;;;19.82;100.00;101367.78;2079237;28;20431;-67
2022/09/09 02:29:57;;;;;;;9.53;8.23;;;;;;;19.33;100.00;101293.53;2078478;28;20455;-67
2022/09/09 02:30:59;;;;;;;9.27;8.23;;;;;;;19.83;100.00;101374.94;2079075;28;20422;-67
2022/09/09 02:32:05;;;;;;;9.70;8.70;;;;;;;19.77;100.00;101365.63;2079082;28;20434;-67
2022/09/09 02:33:10;;;;;;;10.60;8.20;;;;;;;19.84;100.00;101379.31;2078749;28;20427;-67
2022/09/09 02:34:13;;;;;;;9.57;8.67;;;;;;;19.38;100.00;101312.53;2079172;28;20466;-66
2022/09/09 02:35:17;;;;;;;12.30;8.00;;;;;;;19.85;100.00;101382.91;2079269;28;20851;-66
2022/09/09 02:36:19;;;;;;;9.47;8.23;;;;;;;19.47;100.00;101323.75;2079559;28;20510;-66
2022/09/09 02:37:25;;;;;;;12.07;8.53;;;;;;;19.34;100.00;101306.34;2078967;28;21420;-66
2022/09/09 02:38:30;;;;;;;12.27;8.23;;;;;;;19.84;100.00;101387.75;2078191;28;20445;-66
2022/09/09 02:39:30;;;;;;;10.83;8.30;;;;;;;19.85;100.00;101388.53;2079197;28;20446;-66
2022/09/09 02:40:31;;;;;;;11.43;8.70;;;;;;;19.85;100.00;101380.88;2078984;28;20451;-66
2022/09/09 02:41:34;;;;;;;11.60;8.33;;;;;;;19.86;100.00;101376.78;2079192;28;20188;-67
2022/09/09 02:42:40;;;;;;;13.37;8.40;;;;;;;19.86;100.00;101367.59;2079054;28;20450;-67
2022/09/09 02:43:40;;;;;;;10.00;8.30;;;;;;;19.85;100.00;101371.66;2079074;28;20459;-66
2022/09/09 02:44:41;;;;;;;11.77;8.37;;;;;;;19.83;100.00;101374.16;2077913;28;20428;-66
2022/09/09 02:45:56;;;;;;;11.17;8.70;;;;;;;19.78;100.00;101375.59;2078078;28;20196;-67
2022/09/09 02:47:15;;;;;;;10.03;8.53;;;;;;;19.77;100.00;101376.06;2078804;28;20426;-67
2022/09/09 02:48:30;;;;;;;9.23;8.20;;;;;;;19.19;100.00;101280.91;2078960;28;20451;-66
2022/09/09 02:49:40;;;;;;;11.07;8.20;;;;;;;19.78;100.00;101377.63;2078706;28;20439;-66
2022/09/09 02:50:53;;;;;;;11.37;8.53;;;;;;;19.77;100.00;101379.69;2079259;28;20848;-66
2022/09/09 02:52:08;;;;;;;9.73;8.30;;;;;;;19.76;100.00;101380.16;2079240;28;20467;-66
2022/09/09 02:53:21;;;;;;;10.07;8.43;;;;;;;19.75;100.00;101384.97;2079233;28;20455;-66
2022/09/09 02:54:31;;;;;;;11.80;8.70;;;;;;;19.76;100.00;101385.78;2078796;28;20478;-67
2022/09/09 02:55:42;;;;;;;11.13;9.53;;;;;;;19.15;100.00;101288.78;2078748;28;20988;-67
2022/09/09 02:56:50;;;;;;;11.93;8.80;;;;;;;19.74;100.00;101383.44;2078269;28;20795;-67
2022/09/09 02:57:52;;;;;;;9.87;8.63;;;;;;;18.83;100.00;101235.38;2078298;28;20964;-67
2022/09/09 02:58:54;;;;;;;9.53;8.53;;;;;;;19.64;100.00;101358.63;2078975;28;20534;-66
2022/09/09 02:59:58;;;;;;;13.77;8.83;;;;;;;19.76;100.00;101383.72;2078257;28;20443;-67
2022/09/09 03:01:00;;;;;;;10.90;8.00;;;;;;;19.79;100.00;101377.16;2079351;28;20975;-67
2022/09/09 03:02:01;;;;;;;11.50;8.90;;;;;;;19.69;100.00;101372.03;2079071;28;20424;-67
2022/09/09 03:03:08;;;;;;;12.90;8.70;;;;;;;19.78;100.00;101381.22;2079058;28;20512;-67
2022/09/09 03:04:09;;;;;;;13.07;8.47;;;;;;;19.74;100.00;101368.56;2078715;28;20280;-67
2022/09/09 03:05:09;;;;;;;14.10;8.57;;;;;;;19.80;100.00;101383.56;2079177;28;20431;-67
2022/09/09 03:06:11;;;;;;;15.87;7.87;;;;;;;19.71;100.00;101361.88;2078195;28;20256;-67
2022/09/09 03:07:12;;;;;;;11.50;8.10;;;;;;;19.80;100.00;101377.94;2078764;28;20220;-66
2022/09/09 03:08:13;;;;;;;13.13;8.30;;;;;;;19.79;100.00;101384.81;2078381;28;20451;-66
2022/09/09 03:09:13;;;;;;;10.50;7.87;;;;;;;19.22;100.00;101284.84;2078500;28;20276;-66
2022/09/09 03:10:14;;;;;;;14.43;8.43;;;;;;;19.80;100.00;101378.72;2079015;28;20197;-66
2022/09/09 03:11:14;;;;;;;13.73;8.60;;;;;;;19.72;100.00;101365.47;2078098;28;20571;-67
2022/09/09 03:12:15;;;;;;;10.00;7.53;;;;;;;19.83;100.00;101385.41;2078955;28;20181;-67
2022/09/09 03:13:15;;;;;;;9.10;8.07;;;;;;;19.83;100.00;101379.78;2078894;28;20560;-66
2022/09/09 03:14:16;;;;;;;12.27;8.23;;;;;;;19.82;100.00;101379.03;2080001;28;20388;-66
2022/09/09 03:15:17;;;;;;;12.67;8.53;;;;;;;19.83;100.00;101382.59;2078174;28;20728;-66
2022/09/09 03:16:17;;;;;;;11.40;8.13;;;;;;;19.83;100.00;101380.56;2078529;28;20197;-66
2022/09/09 03:17:18;;;;;;;13.47;8.90;;;;;;;19.78;100.00;101380.44;2078649;28;20603;-67
2022/09/09 03:18:18;;;;;;;12.90;8.70;;;;;;;19.77;100.00;101378.88;2078720;28;20251;-67
2022/09/09 03:19:20;;;;;;;14.50;8.40;;;;;;;19.75;100.00;101379.34;2078457;28;20194;-67
2022/09/09 03:20:21;;;;;;;10.67;8.53;;;;;;;19.45;100.00;101332.66;2078259;28;20621;-67
2022/09/09 03:21:21;;;;;;;13.50;8.13;;;;;;;19.38;100.00;101321.78;2078372;28;20427;-67
2022/09/09 03:22:22;;;;;;;12.03;8.40;;;;;;;19.76;100.00;101383.72;2080051;28;20185;-66
2022/09/09 03:23:22;;;;;;;11.17;8.50;;;;;;;19.76;100.00;101378.09;2079168;28;20283;-66
2022/09/09 03:24:23;;;;;;;12.33;8.37;;;;;;;19.78;100.00;101386.84;2078393;28;20185;-66
2022/09/09 03:25:24;;;;;;;10.13;7.50;;;;;;;19.77;100.00;101390.94;2078281;28;20193;-66
2022/09/09 03:26:24;;;;;;;11.17;8.17;;;;;;;19.76;100.00;101400.59;2078283;28;20195;-66
2022/09/09 03:27:25;;;;;;;12.27;7.87;;;;;;;19.33;100.00;101332.88;2078396;28;20204;-66
2022/09/09 03:28:30;;;;;;;13.90;8.00;;;;;;;19.46;100.00;101345.47;2078820;28;20503;-66
2022/09/09 03:29:31;;;;;;;21.03;8.27;;;;;;;19.71;100.00;101384.38;2078890;28;20177;-67
2022/09/09 03:30:31;;;;;;;12.00;8.00;;;;;;;19.43;100.00;101354.84;2078489;28;20423;-67
2022/09/09 03:31:33;;;;;;;11.63;7.57;;;;;;;19.57;100.00;101387.09;2079769;28;20212;-66
2022/09/09 03:32:34;;;;;;;14.50;7.90;;;;;;;19.60;100.00;101397.41;2080305;28;20205;-66
2022/09/09 03:33:36;;;;;;;16.50;8.90;;;;;;;19.26;100.00;101341.66;2080311;28;20463;-66
2022/09/09 03:34:40;;;;;;;11.47;8.53;;;;;;;19.50;100.00;101382.59;2079816;28;20239;-66
2022/09/09 03:35:48;;;;;;;13.57;9.23;;;;;;;19.47;100.00;101399.66;2079875;28;20450;-66
2022/09/09 03:36:49;;;;;;;12.13;8.40;;;;;;;19.49;100.00;101381.06;2080632;28;20439;-66
2022/09/09 03:37:49;;;;;;;10.67;8.10;;;;;;;19.50;100.00;101376.22;2079610;28;20440;-66
2022/09/09 03:38:50;;;;;;;11.73;7.60;;;;;;;19.50;100.00;101371.34;2079629;28;26880;-67
2022/09/09 03:39:51;;;;;;;16.20;7.73;;;;;;;19.28;100.00;101336.31;2079526;28;20173;-66
2022/09/09 03:40:56;;;;;;;10.97;8.27;;;;;;;19.50;100.00;101390.28;2080371;28;20416;-67
2022/09/09 03:41:59;;;;;;;11.20;8.67;;;;;;;19.49;100.00;101383.88;2080116;28;20173;-66
2022/09/09 03:42:59;;;;;;;15.43;8.53;;;;;;;19.48;100.00;101376.69;2080793;28;20490;-66
2022/09/09 03:44:00;;;;;;;11.20;7.97;;;;;;;19.48;100.00;101373.88;2080197;28;20439;-66
2022/09/09 03:45:00;;;;;;;17.70;8.50;;;;;;;19.49;100.00;101380.28;2079100;28;20201;-66
2022/09/09 03:46:01;;;;;;;14.10;8.47;;;;;;;19.47;100.00;101380.75;2079757;28;20202;-66
2022/09/09 03:47:01;;;;;;;11.90;7.90;;;;;;;19.47;100.00;101389.19;2079861;28;20219;-67
2022/09/09 03:48:02;;;;;;;13.83;8.30;;;;;;;19.17;100.00;101348.06;2079989;28;20658;-66
2022/09/09 03:49:02;;;;;;;10.90;8.20;;;;;;;19.12;100.00;101337.47;2079502;28;20671;-66
2022/09/09 03:50:07;;;;;;;12.23;9.00;;;;;;;19.22;100.00;101360.72;2079730;28;20242;-66
2022/09/09 03:51:08;;;;;;;13.23;8.27;;;;;;;19.47;100.00;101385.59;2080714;28;20193;-67
2022/09/09 03:52:09;;;;;;;13.77;9.00;;;;;;;19.47;100.00;101385.59;2080485;28;20423;-67
2022/09/09 03:53:09;;;;;;;14.40;9.03;;;;;;;19.47;100.00;101379.97;2080407;28;20220;-67
2022/09/09 03:54:10;;;;;;;12.30;8.10;;;;;;;19.49;100.00;101383.09;2079795;28;20491;-67
2022/09/09 03:55:10;;;;;;;9.90;8.57;;;;;;;19.49;100.00;101389.50;2079580;28;20184;-66
2022/09/09 03:56:11;;;;;;;14.40;8.10;;;;;;;19.50;100.00;101385.41;2079499;28;20606;-66
2022/09/09 03:57:12;;;;;;;24.40;9.43;;;;;;;19.36;100.00;101365.66;2079864;28;20181;-66
2022/09/09 03:58:18;;;;;;;40.43;10.73;;;;;;;19.53;100.00;101390.09;2079213;28;20207;-66
2022/09/09 03:59:20;;;;;;;41.63;10.43;;;;;;;19.53;100.00;101395.72;2079920;28;20224;-67
2022/09/09 04:00:20;;;;;;;31.40;11.20;;;;;;;18.73;100.00;101265.50;2080312;28;20460;-66
2022/09/09 04:01:21;;;;;;;35.00;11.03;;;;;;;19.25;100.00;101342.91;2081002;28;20435;-67
2022/09/09 04:02:21;;;;;;;48.80;12.37;;;;;;;19.53;100.00;101386.50;2080319;28;20243;-67
2022/09/09 04:03:24;;;;;;;34.60;10.60;;;;;;;19.50;100.00;101391.03;2079848;28;20193;-67
2022/09/09 04:04:26;;;;;;;39.50;10.73;;;;;;;19.50;100.00;101396.66;2079776;28;20284;-66
2022/09/09 04:05:27;;;;;;;34.83;11.23;;;;;;;19.50;100.00;101398.72;2079673;28;20431;-66
2022/09/09 04:06:28;;;;;;;35.00;11.00;;;;;;;19.50;100.00;101401.53;2079934;28;20565;-66
2022/09/09 04:07:28;;;;;;;27.07;10.10;;;;;;;19.50;100.00;101410.72;2079466;28;20217;-67
2022/09/09 04:08:33;;;;;;;33.47;9.97;;;;;;;18.51;100.00;101267.75;2079853;28;20231;-66
2022/09/09 04:09:34;;;;;;;23.10;9.87;;;;;;;19.47;100.00;101413.72;2080199;28;20708;-67
2022/09/09 04:10:38;;;;;;;30.93;10.60;;;;;;;19.47;100.00;101413.72;2080796;28;20423;-66
2022/09/09 04:11:38;;;;;;;22.53;9.57;;;;;;;19.36;100.00;101411.41;2080039;28;20535;-66
2022/09/09 04:12:39;;;;;;;23.13;9.13;;;;;;;19.06;100.00;101356.22;2079391;28;20552;-66
2022/09/09 04:13:40;;;;;;;14.80;9.50;;;;;;;19.42;100.00;101420.75;2079768;28;20269;-66
2022/09/09 04:14:40;;;;;;;19.23;10.03;;;;;;;19.40;100.00;101422.50;2079633;28;20545;-67
2022/09/09 04:15:41;;;;;;;16.90;10.63;;;;;;;18.64;100.00;101301.25;2079678;28;20192;-67
2022/09/09 04:16:44;;;;;;;16.20;10.57;;;;;;;19.38;100.00;101419.34;2079511;28;20196;-67
2022/09/09 04:17:44;;;;;;;11.47;10.37;;;;;;;19.37;100.00;101424.22;2079455;28;20185;-66
2022/09/09 04:18:45;;;;;;;16.20;10.50;;;;;;;19.33;100.00;101434.03;2080116;28;20427;-66
2022/09/09 04:19:46;;;;;;;21.30;11.37;;;;;;;19.32;100.00;101419.22;2080854;28;20181;-67
2022/09/09 04:20:51;;;;;;;29.93;11.77;;;;;;;19.22;100.00;101414.09;2078099;28;20288;-67
2022/09/09 04:21:51;;;;;;;22.13;10.30;;;;;;;19.35;100.00;101432.31;2078410;28;20291;-66
2022/09/09 04:22:52;;;;;;;19.57;9.57;;;;;;;19.39;100.00;101429.38;2079085;28;20446;-67
2022/09/09 04:23:52;;;;;;;16.03;9.03;;;;;;;19.40;100.00;101425.28;2080083;28;20177;-67
2022/09/09 04:24:53;;;;;;;12.83;8.17;;;;;;;19.36;100.00;101407.81;2076155;28;20265;-66
2022/09/09 04:25:54;;;;;;;12.50;8.77;;;;;;;19.41;100.00;101424.84;2078499;28;20200;-66
2022/09/09 04:26:55;;;;;;;14.27;8.80;;;;;;;19.42;100.00;101414.34;2079499;28;20693;-66
2022/09/09 04:27:57;;;;;;;16.30;9.17;;;;;;;19.44;100.00;101429.50;2078636;28;20843;-66
2022/09/09 04:28:58;;;;;;;14.60;9.30;;;;;;;19.39;100.00;101420.94;2079502;28;20595;-66
2022/09/09 04:29:58;;;;;;;10.00;8.93;;;;;;;19.27;100.00;101393.78;2078008;28;20451;-67
2022/09/09 04:31:08;;;;;;;13.43;9.50;;;;;;;18.91;100.00;101349.72;2078441;28;20196;-66
2022/09/09 04:32:09;;;;;;;18.47;9.33;;;;;;;19.12;100.00;101381.63;2078898;28;20196;-66
2022/09/09 04:33:10;;;;;;;20.60;10.63;;;;;;;19.49;100.00;101433.72;2078924;28;20534;-66
2022/09/09 04:34:10;;;;;;;18.17;10.17;;;;;;;19.15;100.00;101369.47;2079280;28;20756;-66
2022/09/09 04:35:11;;;;;;;16.07;9.37;;;;;;;19.44;100.00;101415.44;2078568;28;20806;-66
2022/09/09 04:36:12;;;;;;;11.30;9.10;;;;;;;19.23;100.00;101379.91;2078203;28;20251;-66
2022/09/09 04:37:13;;;;;;;15.43;9.20;;;;;;;19.55;100.00;101412.88;2078001;28;20181;-66
2022/09/09 04:38:15;;;;;;;14.37;8.80;;;;;;;19.57;100.00;101416.03;2080021;28;20437;-66
2022/09/09 04:39:15;;;;;;;13.07;8.97;;;;;;;19.52;100.00;101391.34;2071532;28;20452;-66
2022/09/09 04:40:16;;;;;;;13.73;9.40;;;;;;;19.64;100.00;101415.66;2076671;28;20494;-66
2022/09/09 04:41:16;;;;;;;13.57;9.10;;;;;;;19.54;100.00;101393.69;2077451;28;20261;-66
2022/09/09 04:42:19;;;;;;;10.87;9.40;;;;;;;19.66;100.00;101409.56;2077187;28;20694;-67
2022/09/09 04:43:20;;;;;;;12.50;9.43;;;;;;;19.70;100.00;101407.38;2077987;28;20181;-66
2022/09/09 04:44:21;;;;;;;15.87;9.37;;;;;;;19.72;100.00;101408.44;2078517;28;20431;-66
2022/09/09 04:45:21;;;;;;;13.33;10.10;;;;;;;19.75;100.00;101406.72;2076369;28;20450;-66
2022/09/09 04:46:22;;;;;;;15.03;11.27;;;;;;;19.79;100.00;101419.34;2072447;28;20242;-66
2022/09/09 04:47:23;;;;;;;13.27;10.13;;;;;;;19.85;100.00;101413.84;2076444;28;20203;-66
2022/09/09 04:48:25;;;;;;;16.80;10.60;;;;;;;19.88;100.00;101410.06;2075075;28;20430;-66
2022/09/09 04:49:25;;;;;;;17.27;10.43;;;;;;;19.93;100.00;101412.22;2077383;28;20188;-66
2022/09/09 04:50:26;;;;;;;16.50;9.93;;;;;;;19.93;100.00;101409.41;2079343;28;20443;-66
2022/09/09 04:51:26;;;;;;;16.30;9.73;;;;;;;20.01;100.00;101413.44;2077527;28;20200;-67
2022/09/09 04:52:27;;;;;;;11.57;9.00;;;;;;;19.96;100.00;101397.97;2073564;28;20355;-66
2022/09/09 04:53:28;;;;;;;12.20;9.30;;;;;;;20.01;100.00;101402.19;2077855;28;20274;-66
2022/09/09 04:54:29;;;;;;;14.13;9.00;;;;;;;20.06;100.00;101399.47;2077316;28;20525;-66
2022/09/09 04:55:30;;;;;;;10.37;8.77;;;;;;;20.19;100.00;101413.34;2077168;28;20185;-66
2022/09/09 04:56:30;;;;;;;10.73;8.53;;;;;;;20.23;100.00;101411.94;2076478;28;20184;-67
2022/09/09 04:57:32;;;;;;;11.03;8.27;;;;;;;20.23;100.00;101403.47;2075353;28;20528;-67
2022/09/09 04:58:33;;;;;;;10.27;8.67;;;;;;;20.34;100.00;101414.19;2077921;28;20283;-67
2022/09/09 04:59:33;;;;;;;12.77;8.93;;;;;;;20.37;100.00;101404.78;2076582;28;20439;-67
2022/09/09 05:00:37;;;;;;;10.83;8.93;;;;;;;20.41;100.00;101411.78;2074359;28;20775;-67
2022/09/09 05:01:38;;;;;;;15.13;8.77;;;;;;;20.45;100.00;101412.38;2076980;28;20268;-66